San Juan Enterprise — WDD9563 — position and weather

sailwx.info

Track history (hours):
 
Tides and Currents Weather Stations Pressure Air Temp Water Temp Dewpoint Dewpoint Depression Visibility Wind Speed Wind Dir Waves Ship Positions

San Juan Enterprise

Owner: SAN JUAN MARINE FREIGHT CO LLC, ANACORTES, WA. More information available from US FCC via Universal Licensing System and Coast Guard Vessel Documentation Center.

Last reported at 2016-Aug-24 09:31 UTC. Time now 2016-Aug-24 10:21 UTC.
Position N 48°31' W 122°36'.

Length 30 m.

MMSI: 367313160.

Date/timePositionNaut miles runAvg speedWind from/ knotsBaromVisibWave heightAir tempDewpointWater temp
2016-Aug-24 09:31N 48°31' W 122°36'0 0.0
2016-Aug-24 08:31N 48°31' W 122°36'0 0.0
2016-Aug-24 07:31N 48°31' W 122°36'0 0.0
2016-Aug-24 06:31N 48°31' W 122°36'0 0.0
2016-Aug-24 04:31N 48°31' W 122°36'0 0.0
2016-Aug-24 03:19N 48°31' W 122°36'0 0.0
2016-Aug-24 02:31N 48°31' W 122°36'0 0.0
2016-Aug-24 01:31N 48°31' W 122°36'0 0.0
2016-Aug-24 00:31N 48°31' W 122°36'4 4.2
2016-Aug-23 23:33N 48°32' W 122°42'5 5.4
2016-Aug-23 22:33N 48°35' W 122°49'4 3.9
2016-Aug-23 21:33N 48°33' W 122°44'5 4.5
2016-Aug-23 20:33N 48°31' W 122°38'3 2.9
2016-Aug-23 19:33N 48°33' W 122°41'0 0.0
2016-Aug-23 18:33N 48°33' W 122°41'3 3.4
2016-Aug-23 17:33N 48°31' W 122°37'0 0.0
2016-Aug-23 16:33N 48°31' W 122°37'0 0.3
2016-Aug-23 15:30N 48°31' W 122°36'0 0.0
2016-Aug-23 14:30N 48°31' W 122°36'0 0.0
2016-Aug-23 13:30N 48°31' W 122°36'0 0.0
2016-Aug-23 12:30N 48°31' W 122°36'0 0.0
2016-Aug-23 11:30N 48°31' W 122°36'0 0.0
2016-Aug-23 10:24N 48°31' W 122°36'0 0.0
2016-Aug-23 09:30N 48°31' W 122°36'0 0.0
2016-Aug-23 08:30N 48°31' W 122°36'0 0.0
2016-Aug-23 07:24N 48°31' W 122°36'0 0.0
2016-Aug-23 06:30N 48°31' W 122°36'0 0.0
2016-Aug-23 05:24N 48°31' W 122°36'0 0.0
2016-Aug-23 04:30N 48°31' W 122°36'0 0.0
2016-Aug-23 03:30N 48°31' W 122°36'0 0.0
2016-Aug-23 02:30N 48°31' W 122°36'0 0.0
2016-Aug-23 01:33N 48°31' W 122°36'9 8.2
2016-Aug-23 00:29N 48°29' W 122°49'2 2.4
2016-Aug-22 23:33N 48°29' W 122°46'6 6.4
2016-Aug-22 22:33N 48°31' W 122°36'0 0.0
2016-Aug-22 21:33N 48°31' W 122°36'0 0.0
2016-Aug-22 20:33N 48°31' W 122°36'7 7.3
2016-Aug-22 19:34N 48°32' W 122°47'7 7.3
2016-Aug-22 18:33N 48°32' W 122°58'1 1.3
2016-Aug-22 17:33N 48°32' W 123°00'5 4.8
2016-Aug-22 16:33N 48°34' W 122°54'8 8.3
2016-Aug-22 15:33N 48°32' W 122°42'3 2.8
2016-Aug-22 14:19N 48°31' W 122°36'0 0.0
2016-Aug-22 13:31N 48°31' W 122°36'0 0.0
2016-Aug-22 12:31N 48°31' W 122°36'0 0.0
2016-Aug-22 11:31N 48°31' W 122°36'0 0.0
2016-Aug-22 10:31N 48°31' W 122°36'0 0.0
2016-Aug-22 09:31N 48°31' W 122°36'0 0.0
2016-Aug-22 08:31N 48°31' W 122°36'0 0.0
2016-Aug-22 07:31N 48°31' W 122°36'0 0.0
2016-Aug-22 06:31N 48°31' W 122°36'0 0.0
2016-Aug-22 05:25N 48°31' W 122°36'0 0.0
2016-Aug-22 04:19N 48°31' W 122°36'0 0.0
2016-Aug-22 03:31N 48°31' W 122°36'0 0.0
2016-Aug-22 02:31N 48°31' W 122°36'0 0.0
2016-Aug-22 01:31N 48°31' W 122°36'0 0.0
2016-Aug-22 00:31N 48°31' W 122°36'0 0.0
2016-Aug-21 23:31N 48°31' W 122°36'0 0.0
2016-Aug-21 22:31N 48°31' W 122°36'0 0.0
2016-Aug-21 21:31N 48°31' W 122°36'0 0.0
2016-Aug-21 20:31N 48°31' W 122°36'0 0.0
2016-Aug-21 19:25N 48°31' W 122°36'0 0.0
2016-Aug-21 18:31N 48°31' W 122°36'0 0.0
2016-Aug-21 17:25N 48°31' W 122°36'0 0.0
2016-Aug-21 16:31N 48°31' W 122°36'0 0.0
2016-Aug-21 15:31N 48°31' W 122°36'0 0.0
2016-Aug-21 14:31N 48°31' W 122°36'0 0.0
2016-Aug-21 13:31N 48°31' W 122°36'0 0.0
2016-Aug-21 12:31N 48°31' W 122°36'0 0.0
2016-Aug-21 11:31N 48°31' W 122°36'0 0.0
2016-Aug-21 10:31N 48°31' W 122°36'0 0.0
2016-Aug-21 09:31N 48°31' W 122°36'0 0.0
2016-Aug-21 08:31N 48°31' W 122°36'0 0.0
2016-Aug-21 07:31N 48°31' W 122°36'0 0.0
2016-Aug-21 06:31N 48°31' W 122°36'0 0.0
2016-Aug-21 05:31N 48°31' W 122°36'0 0.0
2016-Aug-21 04:31N 48°31' W 122°36'0 0.0
2016-Aug-21 03:31N 48°31' W 122°36'0 0.0
2016-Aug-21 02:31N 48°31' W 122°36'0 0.0
2016-Aug-21 01:25N 48°31' W 122°36'0 0.0
2016-Aug-21 00:25N 48°31' W 122°36'0 0.0
2016-Aug-20 23:25N 48°31' W 122°36'0 0.0
2016-Aug-20 22:31N 48°31' W 122°36'0 0.0
2016-Aug-20 21:31N 48°31' W 122°36'0 0.0
2016-Aug-20 20:31N 48°31' W 122°36'0 0.0
2016-Aug-20 19:31N 48°31' W 122°36'0 0.0
2016-Aug-20 18:25N 48°31' W 122°36'0 0.0
2016-Aug-20 17:31N 48°31' W 122°36'0 0.0
2016-Aug-20 16:31N 48°31' W 122°36'0 0.0
2016-Aug-20 15:31N 48°31' W 122°36'0 0.0
2016-Aug-20 14:31N 48°31' W 122°36'0 0.0
2016-Aug-20 13:31N 48°31' W 122°36'0 0.0
2016-Aug-20 12:31N 48°31' W 122°36'0 0.0
2016-Aug-20 11:25N 48°31' W 122°36'0 0.0
2016-Aug-20 10:25N 48°31' W 122°36'0 0.0
2016-Aug-20 09:32N 48°31' W 122°36'0 0.0
2016-Aug-20 08:31N 48°31' W 122°36'0 0.0
2016-Aug-20 07:31N 48°31' W 122°36'0 0.0
2016-Aug-20 06:31N 48°31' W 122°36'0 0.0
2016-Aug-20 05:32N 48°31' W 122°36'0 0.0
2016-Aug-20 04:31N 48°31' W 122°36'0 0.0
2016-Aug-20 03:31N 48°31' W 122°36'0 0.0
2016-Aug-20 02:31N 48°31' W 122°36'0 0.0
2016-Aug-20 01:33N 48°31' W 122°36'6 6.2
2016-Aug-20 00:33N 48°31' W 122°46'7 6.8
2016-Aug-19 23:33N 48°33' W 122°55'4 3.8
2016-Aug-19 22:33N 48°32' W 122°60'0 0.0
2016-Aug-19 21:33N 48°32' W 122°60'7 6.5
2016-Aug-19 20:33N 48°35' W 122°51'2 2.1
2016-Aug-19 19:33N 48°33' W 122°50'0 0.1
2016-Aug-19 18:33N 48°33' W 122°50'4 3.8
2016-Aug-19 17:33N 48°33' W 122°44'6 2.6
2016-Aug-19 15:28N 48°31' W 122°36'0 0.0
2016-Aug-19 14:28N 48°31' W 122°36'0 0.0
2016-Aug-19 13:28N 48°31' W 122°36'0 0.0
2016-Aug-19 12:28N 48°31' W 122°36'0 0.0
2016-Aug-19 11:28N 48°31' W 122°36'0 0.0
2016-Aug-19 10:28N 48°31' W 122°36'0 0.0
2016-Aug-19 09:22N 48°31' W 122°36'0 0.0
2016-Aug-19 08:28N 48°31' W 122°36'0 0.0
2016-Aug-19 07:28N 48°31' W 122°36'0 0.0
2016-Aug-19 06:22N 48°31' W 122°36'0 0.0
2016-Aug-19 04:28N 48°31' W 122°36'0 0.0
2016-Aug-19 03:28N 48°31' W 122°36'0 0.0
2016-Aug-19 02:10N 48°31' W 122°36'0 0.0
2016-Aug-19 01:22N 48°31' W 122°36'0 0.0
2016-Aug-19 00:28N 48°31' W 122°36'0 0.0
2016-Aug-18 23:28N 48°31' W 122°36'0 0.0
2016-Aug-18 22:30N 48°31' W 122°36'1 0.7
2016-Aug-18 21:33N 48°31' W 122°36'1 0.8
2016-Aug-18 20:34N 48°31' W 122°37'9 9.1
2016-Aug-18 19:33N 48°33' W 122°51'6 6.4
2016-Aug-18 18:33N 48°32' W 122°60'0 0.0
2016-Aug-18 17:33N 48°32' W 122°60'5 5.4
2016-Aug-18 16:33N 48°34' W 122°53'8 7.6
2016-Aug-18 15:33N 48°32' W 122°42'4 3.8
2016-Aug-18 14:31N 48°31' W 122°36'0 0.0
2016-Aug-18 13:31N 48°31' W 122°36'0 0.0
2016-Aug-18 12:31N 48°31' W 122°36'0 0.0
2016-Aug-18 11:31N 48°31' W 122°36'0 0.0
2016-Aug-18 10:31N 48°31' W 122°36'0 0.0
2016-Aug-18 09:31N 48°31' W 122°36'0 0.0
2016-Aug-18 08:25N 48°31' W 122°36'0 0.0
2016-Aug-18 07:31N 48°31' W 122°36'0 0.0
2016-Aug-18 06:31N 48°31' W 122°36'0 0.0
2016-Aug-18 05:31N 48°31' W 122°36'0 0.0
2016-Aug-18 04:25N 48°31' W 122°36'0 0.0
2016-Aug-18 03:31N 48°31' W 122°36'0 0.0
2016-Aug-18 02:31N 48°31' W 122°36'0 0.0
2016-Aug-18 01:31N 48°31' W 122°36'0 0.0
2016-Aug-18 00:31N 48°31' W 122°36'0 0.0
2016-Aug-17 23:31N 48°31' W 122°36'0 0.0
2016-Aug-17 22:25N 48°31' W 122°36'0 0.0
2016-Aug-17 21:31N 48°31' W 122°36'0 0.0
2016-Aug-17 20:25N 48°31' W 122°36'0 0.0
2016-Aug-17 19:31N 48°31' W 122°36'0 0.0
2016-Aug-17 18:31N 48°31' W 122°36'0 0.0
2016-Aug-17 17:31N 48°31' W 122°36'0 0.0
2016-Aug-17 16:31N 48°31' W 122°36'0 0.0
2016-Aug-17 15:31N 48°31' W 122°36'0 0.0
2016-Aug-17 14:31N 48°31' W 122°36'0 0.0
2016-Aug-17 13:31N 48°31' W 122°36'0 0.0
2016-Aug-17 12:31N 48°31' W 122°36'0 0.0
2016-Aug-17 11:31N 48°31' W 122°36'0 0.0
2016-Aug-17 10:25N 48°31' W 122°36'0 0.0
2016-Aug-17 09:32N 48°31' W 122°36'0 0.0
2016-Aug-17 08:31N 48°31' W 122°36'0 0.0
2016-Aug-17 07:32N 48°31' W 122°36'0 0.0
2016-Aug-17 06:20N 48°31' W 122°36'0 0.0
2016-Aug-17 05:31N 48°31' W 122°36'0 0.0
2016-Aug-17 04:25N 48°31' W 122°36'0 0.0
2016-Aug-17 03:31N 48°31' W 122°36'0 0.0
2016-Aug-17 02:31N 48°31' W 122°36'0 0.0
2016-Aug-17 01:31N 48°31' W 122°36'0 0.0
2016-Aug-17 00:31N 48°31' W 122°36'0 0.0
2016-Aug-16 23:19N 48°31' W 122°36'0 0.0
2016-Aug-16 22:19N 48°31' W 122°36'0 0.0
2016-Aug-16 21:19N 48°31' W 122°36'0 0.0
2016-Aug-16 20:31N 48°31' W 122°36'0 0.0
2016-Aug-16 18:31N 48°31' W 122°36'0 0.0
2016-Aug-16 15:25N 48°31' W 122°36'0 0.0
2016-Aug-16 14:32N 48°31' W 122°36'0 0.0
2016-Aug-16 13:32N 48°31' W 122°36'0 0.0
2016-Aug-16 11:25N 48°31' W 122°36'0 0.0
2016-Aug-16 09:32N 48°31' W 122°36'0 0.0
2016-Aug-16 08:32N 48°31' W 122°36'0 0.0
2016-Aug-16 07:32N 48°31' W 122°36'0 0.0
2016-Aug-16 06:20N 48°31' W 122°36'0 0.0
2016-Aug-16 04:07N 48°31' W 122°36'0 0.0
2016-Aug-16 03:31N 48°31' W 122°36'3 3.0
2016-Aug-16 02:33N 48°34' W 122°35'5 4.7
2016-Aug-16 01:27N 48°39' W 122°35'0 0.0
2016-Aug-16 00:33N 48°39' W 122°35'2 2.4
2016-Aug-15 23:33N 48°37' W 122°37'2 1.5
2016-Aug-15 22:33N 48°36' W 122°35'4 4.5
2016-Aug-15 21:33N 48°31' W 122°36'0 0.0
2016-Aug-15 20:33N 48°31' W 122°36'0 0.0
2016-Aug-15 19:33N 48°31' W 122°36'0 0.0
2016-Aug-15 18:33N 48°31' W 122°36'0 0.0
2016-Aug-15 17:33N 48°31' W 122°36'0 0.0
2016-Aug-15 16:33N 48°31' W 122°36'0 0.0
2016-Aug-15 15:29N 48°31' W 122°36'0 0.0
2016-Aug-15 14:33N 48°31' W 122°36'0 0.0
2016-Aug-15 13:33N 48°31' W 122°36'0 0.0
2016-Aug-15 12:34N 48°31' W 122°36'0 0.0
2016-Aug-15 11:33N 48°31' W 122°36'0 0.0
2016-Aug-15 10:33N 48°31' W 122°36'0 0.0
2016-Aug-15 09:33N 48°31' W 122°36'0 0.0
2016-Aug-15 08:33N 48°31' W 122°36'0 0.0
2016-Aug-15 07:33N 48°31' W 122°36'0 0.0
2016-Aug-15 06:33N 48°31' W 122°36'0 0.0
2016-Aug-15 04:33N 48°31' W 122°36'0 0.0
2016-Aug-15 03:32N 48°31' W 122°36'0 0.0
2016-Aug-15 02:32N 48°31' W 122°36'0 0.0
2016-Aug-15 01:33N 48°31' W 122°36'0 0.0
2016-Aug-15 00:33N 48°31' W 122°36'0 0.0
2016-Aug-14 23:33N 48°31' W 122°36'0 0.0
2016-Aug-14 22:33N 48°31' W 122°36'0 0.0
2016-Aug-14 21:32N 48°31' W 122°36'0 0.0
2016-Aug-14 20:33N 48°31' W 122°36'0 0.0
2016-Aug-14 19:33N 48°31' W 122°36'0 0.0
2016-Aug-14 18:33N 48°31' W 122°36'0 0.0
2016-Aug-14 17:33N 48°31' W 122°36'0 0.0
2016-Aug-14 16:34N 48°31' W 122°36'0 0.0
2016-Aug-14 15:33N 48°31' W 122°36'0 0.0
2016-Aug-14 14:32N 48°31' W 122°36'0 0.0
2016-Aug-14 13:34N 48°31' W 122°36'0 0.0
2016-Aug-14 12:33N 48°31' W 122°36'0 0.0
2016-Aug-14 11:34N 48°31' W 122°36'0 0.0
2016-Aug-14 10:32N 48°31' W 122°36'0 0.0
2016-Aug-14 09:32N 48°31' W 122°36'  
Track history (hours):
 
Tides and Currents Weather Stations Pressure Air Temp Water Temp Dewpoint Dewpoint Depression Visibility Wind Speed Wind Dir Waves Ship Positions

San Juan Enterprise

Owner: SAN JUAN MARINE FREIGHT CO LLC, ANACORTES, WA. More information available from US FCC via Universal Licensing System and Coast Guard Vessel Documentation Center.

Last reported at 2016-Aug-24 09:31 UTC. Time now 2016-Aug-24 10:21 UTC.
Position N 48°31' W 122°36'.

Length 30 m.

MMSI: 367313160.

Date/timePositionNaut miles runAvg speedWind from/ knotsBaromVisibWave heightAir tempDewpointWater temp
2016-Aug-24 09:31N 48°31' W 122°36'0 0.0
2016-Aug-24 08:31N 48°31' W 122°36'0 0.0
2016-Aug-24 07:31N 48°31' W 122°36'0 0.0
2016-Aug-24 06:31N 48°31' W 122°36'0 0.0
2016-Aug-24 04:31N 48°31' W 122°36'0 0.0
2016-Aug-24 03:19N 48°31' W 122°36'0 0.0
2016-Aug-24 02:31N 48°31' W 122°36'0 0.0
2016-Aug-24 01:31N 48°31' W 122°36'0 0.0
2016-Aug-24 00:31N 48°31' W 122°36'4 4.2
2016-Aug-23 23:33N 48°32' W 122°42'5 5.4
2016-Aug-23 22:33N 48°35' W 122°49'4 3.9
2016-Aug-23 21:33N 48°33' W 122°44'5 4.5
2016-Aug-23 20:33N 48°31' W 122°38'3 2.9
2016-Aug-23 19:33N 48°33' W 122°41'0 0.0
2016-Aug-23 18:33N 48°33' W 122°41'3 3.4
2016-Aug-23 17:33N 48°31' W 122°37'0 0.0
2016-Aug-23 16:33N 48°31' W 122°37'0 0.3
2016-Aug-23 15:30N 48°31' W 122°36'0 0.0
2016-Aug-23 14:30N 48°31' W 122°36'0 0.0
2016-Aug-23 13:30N 48°31' W 122°36'0 0.0
2016-Aug-23 12:30N 48°31' W 122°36'0 0.0
2016-Aug-23 11:30N 48°31' W 122°36'0 0.0
2016-Aug-23 10:24N 48°31' W 122°36'0 0.0
2016-Aug-23 09:30N 48°31' W 122°36'0 0.0
2016-Aug-23 08:30N 48°31' W 122°36'0 0.0
2016-Aug-23 07:24N 48°31' W 122°36'0 0.0
2016-Aug-23 06:30N 48°31' W 122°36'0 0.0
2016-Aug-23 05:24N 48°31' W 122°36'0 0.0
2016-Aug-23 04:30N 48°31' W 122°36'0 0.0
2016-Aug-23 03:30N 48°31' W 122°36'0 0.0
2016-Aug-23 02:30N 48°31' W 122°36'0 0.0
2016-Aug-23 01:33N 48°31' W 122°36'9 8.2
2016-Aug-23 00:29N 48°29' W 122°49'2 2.4
2016-Aug-22 23:33N 48°29' W 122°46'6 6.4
2016-Aug-22 22:33N 48°31' W 122°36'0 0.0
2016-Aug-22 21:33N 48°31' W 122°36'0 0.0
2016-Aug-22 20:33N 48°31' W 122°36'7 7.3
2016-Aug-22 19:34N 48°32' W 122°47'7 7.3
2016-Aug-22 18:33N 48°32' W 122°58'1 1.3
2016-Aug-22 17:33N 48°32' W 123°00'5 4.8
2016-Aug-22 16:33N 48°34' W 122°54'8 8.3
2016-Aug-22 15:33N 48°32' W 122°42'3 2.8
2016-Aug-22 14:19N 48°31' W 122°36'0 0.0
2016-Aug-22 13:31N 48°31' W 122°36'0 0.0
2016-Aug-22 12:31N 48°31' W 122°36'0 0.0
2016-Aug-22 11:31N 48°31' W 122°36'0 0.0
2016-Aug-22 10:31N 48°31' W 122°36'0 0.0
2016-Aug-22 09:31N 48°31' W 122°36'0 0.0
2016-Aug-22 08:31N 48°31' W 122°36'0 0.0
2016-Aug-22 07:31N 48°31' W 122°36'0 0.0
2016-Aug-22 06:31N 48°31' W 122°36'0 0.0
2016-Aug-22 05:25N 48°31' W 122°36'0 0.0
2016-Aug-22 04:19N 48°31' W 122°36'0 0.0
2016-Aug-22 03:31N 48°31' W 122°36'0 0.0
2016-Aug-22 02:31N 48°31' W 122°36'0 0.0
2016-Aug-22 01:31N 48°31' W 122°36'0 0.0
2016-Aug-22 00:31N 48°31' W 122°36'0 0.0
2016-Aug-21 23:31N 48°31' W 122°36'0 0.0
2016-Aug-21 22:31N 48°31' W 122°36'0 0.0
2016-Aug-21 21:31N 48°31' W 122°36'0 0.0
2016-Aug-21 20:31N 48°31' W 122°36'0 0.0
2016-Aug-21 19:25N 48°31' W 122°36'0 0.0
2016-Aug-21 18:31N 48°31' W 122°36'0 0.0
2016-Aug-21 17:25N 48°31' W 122°36'0 0.0
2016-Aug-21 16:31N 48°31' W 122°36'0 0.0
2016-Aug-21 15:31N 48°31' W 122°36'0 0.0
2016-Aug-21 14:31N 48°31' W 122°36'0 0.0
2016-Aug-21 13:31N 48°31' W 122°36'0 0.0
2016-Aug-21 12:31N 48°31' W 122°36'0 0.0
2016-Aug-21 11:31N 48°31' W 122°36'0 0.0
2016-Aug-21 10:31N 48°31' W 122°36'0 0.0
2016-Aug-21 09:31N 48°31' W 122°36'0 0.0
2016-Aug-21 08:31N 48°31' W 122°36'0 0.0
2016-Aug-21 07:31N 48°31' W 122°36'0 0.0
2016-Aug-21 06:31N 48°31' W 122°36'0 0.0
2016-Aug-21 05:31N 48°31' W 122°36'0 0.0
2016-Aug-21 04:31N 48°31' W 122°36'0 0.0
2016-Aug-21 03:31N 48°31' W 122°36'0 0.0
2016-Aug-21 02:31N 48°31' W 122°36'0 0.0
2016-Aug-21 01:25N 48°31' W 122°36'0 0.0
2016-Aug-21 00:25N 48°31' W 122°36'0 0.0
2016-Aug-20 23:25N 48°31' W 122°36'0 0.0
2016-Aug-20 22:31N 48°31' W 122°36'0 0.0
2016-Aug-20 21:31N 48°31' W 122°36'0 0.0
2016-Aug-20 20:31N 48°31' W 122°36'0 0.0
2016-Aug-20 19:31N 48°31' W 122°36'0 0.0
2016-Aug-20 18:25N 48°31' W 122°36'0 0.0
2016-Aug-20 17:31N 48°31' W 122°36'0 0.0
2016-Aug-20 16:31N 48°31' W 122°36'0 0.0
2016-Aug-20 15:31N 48°31' W 122°36'0 0.0
2016-Aug-20 14:31N 48°31' W 122°36'0 0.0
2016-Aug-20 13:31N 48°31' W 122°36'0 0.0
2016-Aug-20 12:31N 48°31' W 122°36'0 0.0
2016-Aug-20 11:25N 48°31' W 122°36'0 0.0
2016-Aug-20 10:25N 48°31' W 122°36'0 0.0
2016-Aug-20 09:32N 48°31' W 122°36'0 0.0
2016-Aug-20 08:31N 48°31' W 122°36'0 0.0
2016-Aug-20 07:31N 48°31' W 122°36'0 0.0
2016-Aug-20 06:31N 48°31' W 122°36'0 0.0
2016-Aug-20 05:32N 48°31' W 122°36'0 0.0
2016-Aug-20 04:31N 48°31' W 122°36'0 0.0
2016-Aug-20 03:31N 48°31' W 122°36'0 0.0
2016-Aug-20 02:31N 48°31' W 122°36'0 0.0
2016-Aug-20 01:33N 48°31' W 122°36'6 6.2
2016-Aug-20 00:33N 48°31' W 122°46'7 6.8
2016-Aug-19 23:33N 48°33' W 122°55'4 3.8
2016-Aug-19 22:33N 48°32' W 122°60'0 0.0
2016-Aug-19 21:33N 48°32' W 122°60'7 6.5
2016-Aug-19 20:33N 48°35' W 122°51'2 2.1
2016-Aug-19 19:33N 48°33' W 122°50'0 0.1
2016-Aug-19 18:33N 48°33' W 122°50'4 3.8
2016-Aug-19 17:33N 48°33' W 122°44'6 2.6
2016-Aug-19 15:28N 48°31' W 122°36'0 0.0
2016-Aug-19 14:28N 48°31' W 122°36'0 0.0
2016-Aug-19 13:28N 48°31' W 122°36'0 0.0
2016-Aug-19 12:28N 48°31' W 122°36'0 0.0
2016-Aug-19 11:28N 48°31' W 122°36'0 0.0
2016-Aug-19 10:28N 48°31' W 122°36'0 0.0
2016-Aug-19 09:22N 48°31' W 122°36'0 0.0
2016-Aug-19 08:28N 48°31' W 122°36'0 0.0
2016-Aug-19 07:28N 48°31' W 122°36'0 0.0
2016-Aug-19 06:22N 48°31' W 122°36'0 0.0
2016-Aug-19 04:28N 48°31' W 122°36'0 0.0
2016-Aug-19 03:28N 48°31' W 122°36'0 0.0
2016-Aug-19 02:10N 48°31' W 122°36'0 0.0
2016-Aug-19 01:22N 48°31' W 122°36'0 0.0
2016-Aug-19 00:28N 48°31' W 122°36'0 0.0
2016-Aug-18 23:28N 48°31' W 122°36'0 0.0
2016-Aug-18 22:30N 48°31' W 122°36'1 0.7
2016-Aug-18 21:33N 48°31' W 122°36'1 0.8
2016-Aug-18 20:34N 48°31' W 122°37'9 9.1
2016-Aug-18 19:33N 48°33' W 122°51'6 6.4
2016-Aug-18 18:33N 48°32' W 122°60'0 0.0
2016-Aug-18 17:33N 48°32' W 122°60'5 5.4
2016-Aug-18 16:33N 48°34' W 122°53'8 7.6
2016-Aug-18 15:33N 48°32' W 122°42'4 3.8
2016-Aug-18 14:31N 48°31' W 122°36'0 0.0
2016-Aug-18 13:31N 48°31' W 122°36'0 0.0
2016-Aug-18 12:31N 48°31' W 122°36'0 0.0
2016-Aug-18 11:31N 48°31' W 122°36'0 0.0
2016-Aug-18 10:31N 48°31' W 122°36'0 0.0
2016-Aug-18 09:31N 48°31' W 122°36'0 0.0
2016-Aug-18 08:25N 48°31' W 122°36'0 0.0
2016-Aug-18 07:31N 48°31' W 122°36'0 0.0
2016-Aug-18 06:31N 48°31' W 122°36'0 0.0
2016-Aug-18 05:31N 48°31' W 122°36'0 0.0
2016-Aug-18 04:25N 48°31' W 122°36'0 0.0
2016-Aug-18 03:31N 48°31' W 122°36'0 0.0
2016-Aug-18 02:31N 48°31' W 122°36'0 0.0
2016-Aug-18 01:31N 48°31' W 122°36'0 0.0
2016-Aug-18 00:31N 48°31' W 122°36'0 0.0
2016-Aug-17 23:31N 48°31' W 122°36'0 0.0
2016-Aug-17 22:25N 48°31' W 122°36'0 0.0
2016-Aug-17 21:31N 48°31' W 122°36'0 0.0
2016-Aug-17 20:25N 48°31' W 122°36'0 0.0
2016-Aug-17 19:31N 48°31' W 122°36'0 0.0
2016-Aug-17 18:31N 48°31' W 122°36'0 0.0
2016-Aug-17 17:31N 48°31' W 122°36'0 0.0
2016-Aug-17 16:31N 48°31' W 122°36'0 0.0
2016-Aug-17 15:31N 48°31' W 122°36'0 0.0
2016-Aug-17 14:31N 48°31' W 122°36'0 0.0
2016-Aug-17 13:31N 48°31' W 122°36'0 0.0
2016-Aug-17 12:31N 48°31' W 122°36'0 0.0
2016-Aug-17 11:31N 48°31' W 122°36'0 0.0
2016-Aug-17 10:25N 48°31' W 122°36'0 0.0
2016-Aug-17 09:32N 48°31' W 122°36'0 0.0
2016-Aug-17 08:31N 48°31' W 122°36'0 0.0
2016-Aug-17 07:32N 48°31' W 122°36'0 0.0
2016-Aug-17 06:20N 48°31' W 122°36'0 0.0
2016-Aug-17 05:31N 48°31' W 122°36'0 0.0
2016-Aug-17 04:25N 48°31' W 122°36'0 0.0
2016-Aug-17 03:31N 48°31' W 122°36'0 0.0
2016-Aug-17 02:31N 48°31' W 122°36'0 0.0
2016-Aug-17 01:31N 48°31' W 122°36'0 0.0
2016-Aug-17 00:31N 48°31' W 122°36'0 0.0
2016-Aug-16 23:19N 48°31' W 122°36'0 0.0
2016-Aug-16 22:19N 48°31' W 122°36'0 0.0
2016-Aug-16 21:19N 48°31' W 122°36'0 0.0
2016-Aug-16 20:31N 48°31' W 122°36'0 0.0
2016-Aug-16 18:31N 48°31' W 122°36'0 0.0
2016-Aug-16 15:25N 48°31' W 122°36'0 0.0
2016-Aug-16 14:32N 48°31' W 122°36'0 0.0
2016-Aug-16 13:32N 48°31' W 122°36'0 0.0
2016-Aug-16 11:25N 48°31' W 122°36'0 0.0
2016-Aug-16 09:32N 48°31' W 122°36'0 0.0
2016-Aug-16 08:32N 48°31' W 122°36'0 0.0
2016-Aug-16 07:32N 48°31' W 122°36'0 0.0
2016-Aug-16 06:20N 48°31' W 122°36'0 0.0
2016-Aug-16 04:07N 48°31' W 122°36'0 0.0
2016-Aug-16 03:31N 48°31' W 122°36'3 3.0
2016-Aug-16 02:33N 48°34' W 122°35'5 4.7
2016-Aug-16 01:27N 48°39' W 122°35'0 0.0
2016-Aug-16 00:33N 48°39' W 122°35'2 2.4
2016-Aug-15 23:33N 48°37' W 122°37'2 1.5
2016-Aug-15 22:33N 48°36' W 122°35'4 4.5
2016-Aug-15 21:33N 48°31' W 122°36'0 0.0
2016-Aug-15 20:33N 48°31' W 122°36'0 0.0
2016-Aug-15 19:33N 48°31' W 122°36'0 0.0
2016-Aug-15 18:33N 48°31' W 122°36'0 0.0
2016-Aug-15 17:33N 48°31' W 122°36'0 0.0
2016-Aug-15 16:33N 48°31' W 122°36'0 0.0
2016-Aug-15 15:29N 48°31' W 122°36'0 0.0
2016-Aug-15 14:33N 48°31' W 122°36'0 0.0
2016-Aug-15 13:33N 48°31' W 122°36'0 0.0
2016-Aug-15 12:34N 48°31' W 122°36'0 0.0
2016-Aug-15 11:33N 48°31' W 122°36'0 0.0
2016-Aug-15 10:33N 48°31' W 122°36'0 0.0
2016-Aug-15 09:33N 48°31' W 122°36'0 0.0
2016-Aug-15 08:33N 48°31' W 122°36'0 0.0
2016-Aug-15 07:33N 48°31' W 122°36'0 0.0
2016-Aug-15 06:33N 48°31' W 122°36'0 0.0
2016-Aug-15 04:33N 48°31' W 122°36'0 0.0
2016-Aug-15 03:32N 48°31' W 122°36'0 0.0
2016-Aug-15 02:32N 48°31' W 122°36'0 0.0
2016-Aug-15 01:33N 48°31' W 122°36'0 0.0
2016-Aug-15 00:33N 48°31' W 122°36'0 0.0
2016-Aug-14 23:33N 48°31' W 122°36'0 0.0
2016-Aug-14 22:33N 48°31' W 122°36'0 0.0
2016-Aug-14 21:32N 48°31' W 122°36'0 0.0
2016-Aug-14 20:33N 48°31' W 122°36'0 0.0
2016-Aug-14 19:33N 48°31' W 122°36'0 0.0
2016-Aug-14 18:33N 48°31' W 122°36'0 0.0
2016-Aug-14 17:33N 48°31' W 122°36'0 0.0
2016-Aug-14 16:34N 48°31' W 122°36'0 0.0
2016-Aug-14 15:33N 48°31' W 122°36'0 0.0
2016-Aug-14 14:32N 48°31' W 122°36'0 0.0
2016-Aug-14 13:34N 48°31' W 122°36'0 0.0
2016-Aug-14 12:33N 48°31' W 122°36'0 0.0
2016-Aug-14 11:34N 48°31' W 122°36'0 0.0
2016-Aug-14 10:32N 48°31' W 122°36'0 0.0
2016-Aug-14 09:32N 48°31' W 122°36'  

Dump ship's entire track history